Time;durP1;ratioP1;P1;durP2;ratioP2;P2;SDS_P1;SDS_P2;PMS_P1;PMS_P2;Temp;Humidity;BMP_temperature;BMP_pressure;BME280_temperature;BME280_humidity;BME280_pressure;Samples;Min_cycle;Max_cycle;Signal;HPM_P1;HPM_P2
2021/07/09 00:02:16;;;;;;;3.92;2.75;;;;;23.40;102061.00;;;;5083019;28;20260;-78
2021/07/09 00:04:43;;;;;;;3.10;2.45;;;;;23.40;102068.00;;;;5078230;28;20201;-78
2021/07/09 00:07:10;;;;;;;3.50;2.80;;;;;23.40;102056.00;;;;5088889;28;20214;-78
2021/07/09 00:09:37;;;;;;;4.13;2.65;;;;;23.30;102050.00;;;;5077902;28;20713;-77
2021/07/09 00:12:06;;;;;;;2.70;2.50;;;;;23.30;102054.00;;;;5068079;28;20202;-78
2021/07/09 00:14:36;;;;;;;3.78;2.60;;;;;23.30;102057.00;;;;5069397;28;20225;-77
2021/07/09 00:17:04;;;;;;;4.30;2.78;;;;;23.30;102061.00;;;;5085552;28;20259;-77
2021/07/09 00:19:33;;;;;;;3.75;2.60;;;;;23.20;102060.00;;;;5072287;28;20344;-77
2021/07/09 00:22:00;;;;;;;4.20;2.83;;;;;23.20;102061.00;;;;5067833;28;20209;-78
2021/07/09 00:24:28;;;;;;;4.63;3.10;;;;;23.10;102058.00;;;;5077223;28;20198;-78
2021/07/09 00:26:56;;;;;;;3.03;2.40;;;;;23.10;102055.00;;;;5077389;28;20197;-77
2021/07/09 00:29:23;;;;;;;4.45;2.67;;;;;23.10;102060.00;;;;5068069;28;20481;-77
2021/07/09 00:31:50;;;;;;;4.38;2.53;;;;;23.00;102053.00;;;;5068324;28;20574;-78
2021/07/09 00:34:19;;;;;;;3.72;2.88;;;;;23.00;102056.00;;;;5067934;28;20288;-77
2021/07/09 00:36:48;;;;;;;4.10;2.38;;;;;22.90;102060.00;;;;5085541;28;20205;-77
2021/07/09 00:39:15;;;;;;;3.40;2.70;;;;;22.90;102053.00;;;;5087062;28;20247;-78
2021/07/09 00:41:42;;;;;;;5.85;2.75;;;;;22.90;102059.00;;;;5073915;28;20201;-78
2021/07/09 00:44:10;;;;;;;4.60;2.72;;;;;22.80;102056.00;;;;5068378;28;20225;-77
2021/07/09 00:46:40;;;;;;;4.60;2.75;;;;;22.80;102047.00;;;;5068755;28;20249;-77
2021/07/09 00:49:08;;;;;;;2.78;2.47;;;;;22.80;102048.00;;;;5076495;28;20205;-77
2021/07/09 00:51:36;;;;;;;4.10;2.83;;;;;22.70;102046.00;;;;5069070;28;20223;-78
2021/07/09 00:54:05;;;;;;;3.47;2.65;;;;;22.70;102043.00;;;;5068348;28;20195;-77
2021/07/09 00:56:34;;;;;;;3.95;3.05;;;;;22.60;102050.00;;;;5080136;28;20198;-77
2021/07/09 00:59:03;;;;;;;3.45;2.53;;;;;22.60;102049.00;;;;5084292;28;20595;-78
2021/07/09 01:01:31;;;;;;;4.35;2.45;;;;;22.60;102050.00;;;;5068811;28;20691;-77
2021/07/09 01:03:58;;;;;;;4.68;3.05;;;;;22.60;102054.00;;;;5069739;28;20632;-77
2021/07/09 01:06:26;;;;;;;4.32;2.92;;;;;22.50;102050.00;;;;5078223;28;20265;-77
2021/07/09 01:08:53;;;;;;;3.70;2.92;;;;;22.50;102058.00;;;;5085003;28;20224;-77
2021/07/09 01:11:24;;;;;;;2.90;2.53;;;;;22.50;102053.00;;;;5068266;28;20222;-77
2021/07/09 01:13:52;;;;;;;4.05;2.72;;;;;22.40;102049.00;;;;5068213;28;20209;-77
2021/07/09 01:16:19;;;;;;;3.50;2.70;;;;;22.40;102049.00;;;;5072222;28;20210;-77
2021/07/09 01:18:47;;;;;;;2.92;2.63;;;;;22.30;102050.00;;;;5079340;28;20202;-77
2021/07/09 01:21:14;;;;;;;3.55;2.75;;;;;22.30;102050.00;;;;5068530;28;21081;-78
2021/07/09 01:23:42;;;;;;;3.60;3.13;;;;;22.30;102052.00;;;;5067958;28;20202;-77
2021/07/09 01:26:12;;;;;;;2.67;2.20;;;;;22.20;102052.00;;;;5068986;28;20206;-77
2021/07/09 01:28:40;;;;;;;3.47;2.60;;;;;22.20;102049.00;;;;5068477;28;20194;-77
2021/07/09 01:31:08;;;;;;;3.33;2.63;;;;;22.20;102049.00;;;;5067836;28;20304;-78
2021/07/09 01:33:35;;;;;;;3.90;2.70;;;;;22.10;102054.00;;;;5071634;28;20234;-78
2021/07/09 01:36:02;;;;;;;3.28;2.65;;;;;22.10;102058.00;;;;5068886;28;20206;-77
2021/07/09 01:38:29;;;;;;;3.20;2.60;;;;;22.10;102052.00;;;;5082142;28;20209;-78
2021/07/09 01:40:57;;;;;;;3.13;2.65;;;;;22.00;102049.00;;;;5085873;28;20205;-78
2021/07/09 01:43:25;;;;;;;3.90;2.90;;;;;22.00;102053.00;;;;5068367;28;20203;-77
2021/07/09 01:45:54;;;;;;;2.95;2.33;;;;;22.00;102046.00;;;;5087635;28;20663;-77
2021/07/09 01:48:21;;;;;;;4.00;2.78;;;;;22.00;102045.00;;;;5069664;28;20218;-77
2021/07/09 01:50:49;;;;;;;4.78;2.85;;;;;21.90;102040.00;;;;5085149;28;20229;-77
2021/07/09 01:53:16;;;;;;;3.50;2.58;;;;;21.90;102042.00;;;;5086203;28;20198;-77
2021/07/09 01:55:43;;;;;;;3.38;2.10;;;;;21.80;102050.00;;;;5087605;28;20584;-77
2021/07/09 01:58:11;;;;;;;2.90;2.53;;;;;21.80;102051.00;;;;5070233;28;20210;-77
2021/07/09 02:00:39;;;;;;;2.75;2.47;;;;;21.80;102050.00;;;;5076879;28;20209;-77
2021/07/09 02:03:07;;;;;;;5.05;2.80;;;;;21.70;102048.00;;;;5070189;28;20191;-77
2021/07/09 02:05:34;;;;;;;3.05;2.60;;;;;21.70;102059.00;;;;5068543;28;20260;-77
2021/07/09 02:08:01;;;;;;;3.65;2.58;;;;;21.70;102061.00;;;;5070476;28;20275;-77
2021/07/09 02:10:31;;;;;;;3.00;2.40;;;;;21.70;102056.00;;;;5070368;28;20230;-77
2021/07/09 02:12:59;;;;;;;3.13;2.63;;;;;21.60;102057.00;;;;5070080;28;20595;-77
2021/07/09 02:15:29;;;;;;;3.22;2.45;;;;;21.60;102059.00;;;;5070890;28;20203;-77
2021/07/09 02:17:57;;;;;;;2.92;2.08;;;;;21.50;102055.00;;;;5086896;28;20202;-77
2021/07/09 02:20:27;;;;;;;3.33;2.38;;;;;21.50;102061.00;;;;5071778;28;20199;-77
2021/07/09 02:22:56;;;;;;;3.00;2.38;;;;;21.50;102059.00;;;;5070230;28;20199;-77
2021/07/09 02:25:23;;;;;;;3.13;2.08;;;;;21.50;102053.00;;;;5069807;28;20256;-77
2021/07/09 02:27:51;;;;;;;2.45;2.08;;;;;21.40;102056.00;;;;5070291;28;20264;-77
2021/07/09 02:30:20;;;;;;;3.15;2.55;;;;;21.40;102056.00;;;;5070562;28;20226;-77
2021/07/09 02:32:48;;;;;;;3.05;2.38;;;;;21.40;102050.00;;;;5080517;28;20190;-77
2021/07/09 02:35:20;;;;;;;3.33;2.72;;;;;21.30;102049.00;;;;5083293;28;20225;-77
2021/07/09 02:37:49;;;;;;;3.30;2.53;;;;;21.30;102050.00;;;;5069325;28;20245;-77
2021/07/09 02:40:19;;;;;;;3.30;2.50;;;;;21.30;102048.00;;;;5074255;28;20206;-77
2021/07/09 02:42:49;;;;;;;3.00;2.53;;;;;21.30;102056.00;;;;5069075;28;20207;-77
2021/07/09 02:45:17;;;;;;;5.30;2.78;;;;;21.20;102057.00;;;;5072365;28;20199;-78
2021/07/09 02:47:46;;;;;;;9.13;2.88;;;;;21.20;102060.00;;;;5089747;28;20199;-77
2021/07/09 02:50:16;;;;;;;2.95;2.65;;;;;21.20;102057.00;;;;5075250;28;20218;-77
2021/07/09 02:52:43;;;;;;;4.60;2.95;;;;;21.20;102047.00;;;;5069798;28;20212;-77
2021/07/09 02:55:12;;;;;;;3.40;2.70;;;;;21.10;102048.00;;;;5082469;28;20224;-77
2021/07/09 02:57:41;;;;;;;3.53;2.50;;;;;21.10;102048.00;;;;5070765;28;20187;-77
2021/07/09 03:00:11;;;;;;;3.05;2.60;;;;;21.10;102051.00;;;;5070096;28;20229;-77
2021/07/09 03:02:39;;;;;;;3.13;2.45;;;;;21.10;102055.00;;;;5083036;28;20206;-77
2021/07/09 03:05:08;;;;;;;3.28;2.22;;;;;21.00;102045.00;;;;5089904;28;20247;-77
2021/07/09 03:07:37;;;;;;;3.38;2.50;;;;;21.00;102047.00;;;;5074908;28;20218;-77
2021/07/09 03:10:05;;;;;;;2.53;2.22;;;;;21.00;102048.00;;;;5069429;28;20686;-77
2021/07/09 03:12:32;;;;;;;5.38;2.60;;;;;21.00;102052.00;;;;5070101;28;20217;-77
2021/07/09 03:14:59;;;;;;;2.35;2.05;;;;;21.00;102048.00;;;;5069793;28;20199;-77
2021/07/09 03:17:26;;;;;;;2.92;2.38;;;;;20.90;102051.00;;;;5070551;28;20407;-77
2021/07/09 03:19:54;;;;;;;2.40;2.20;;;;;20.90;102053.00;;;;5069495;28;20199;-77
2021/07/09 03:22:21;;;;;;;2.50;2.30;;;;;20.90;102046.00;;;;5069682;28;20187;-77
2021/07/09 03:24:49;;;;;;;4.18;2.88;;;;;20.90;102038.00;;;;5072929;28;20213;-78
2021/07/09 03:27:17;;;;;;;2.92;2.33;;;;;20.90;102047.00;;;;5074244;28;20693;-77
2021/07/09 03:29:44;;;;;;;2.85;2.30;;;;;20.80;102041.00;;;;5069489;28;20191;-77
2021/07/09 03:32:11;;;;;;;3.08;2.28;;;;;20.80;102047.00;;;;5075614;28;20652;-77
2021/07/09 03:34:38;;;;;;;2.67;2.42;;;;;20.80;102045.00;;;;5069597;28;20230;-77
2021/07/09 03:37:06;;;;;;;4.30;2.40;;;;;20.80;102040.00;;;;5069800;28;20203;-77
2021/07/09 03:39:33;;;;;;;2.78;2.42;;;;;20.70;102045.00;;;;5068845;28;20194;-77
2021/07/09 03:42:02;;;;;;;3.15;2.50;;;;;20.70;102044.00;;;;5069838;28;20649;-77
2021/07/09 03:44:29;;;;;;;2.42;2.22;;;;;20.70;102040.00;;;;5068549;28;20202;-77
2021/07/09 03:46:56;;;;;;;3.17;2.88;;;;;20.70;102042.00;;;;5068591;28;20202;-77
2021/07/09 03:49:23;;;;;;;3.42;2.55;;;;;20.70;102041.00;;;;5069029;28;20260;-76
2021/07/09 03:51:50;;;;;;;2.95;2.35;;;;;20.70;102032.00;;;;5085237;28;20814;-77
2021/07/09 03:54:18;;;;;;;3.53;2.47;;;;;20.60;102030.00;;;;5069264;28;20256;-77
2021/07/09 03:56:45;;;;;;;3.28;2.40;;;;;20.60;102036.00;;;;5067495;28;20934;-77
2021/07/09 03:59:13;;;;;;;2.95;2.30;;;;;20.60;102041.00;;;;5069681;28;20202;-77
2021/07/09 04:01:41;;;;;;;3.08;2.42;;;;;20.60;102037.00;;;;5068832;28;20568;-77
2021/07/09 04:04:08;;;;;;;2.67;2.30;;;;;20.60;102033.00;;;;5068134;28;20203;-77
2021/07/09 04:06:36;;;;;;;3.90;2.22;;;;;20.60;102030.00;;;;5068071;28;20731;-77
2021/07/09 04:09:04;;;;;;;2.38;2.17;;;;;20.60;102036.00;;;;5068698;28;20202;-77
2021/07/09 04:11:31;;;;;;;2.92;2.50;;;;;20.60;102032.00;;;;5067601;28;20227;-77
2021/07/09 04:13:58;;;;;;;2.28;1.98;;;;;20.60;102038.00;;;;5069734;28;20322;-77
2021/07/09 04:16:27;;;;;;;2.70;2.13;;;;;20.50;102037.00;;;;5073352;28;20237;-77
2021/07/09 04:18:54;;;;;;;2.45;2.08;;;;;20.60;102040.00;;;;5094707;28;20186;-77
2021/07/09 04:21:21;;;;;;;3.38;2.03;;;;;20.60;102041.00;;;;5087155;28;20255;-77
2021/07/09 04:23:48;;;;;;;2.92;2.05;;;;;20.60;102050.00;;;;5069026;28;20260;-77
2021/07/09 04:26:16;;;;;;;3.55;2.60;;;;;20.60;102042.00;;;;5069975;28;20202;-78
2021/07/09 04:28:43;;;;;;;2.80;2.38;;;;;20.60;102044.00;;;;5079531;28;20186;-77
2021/07/09 04:31:10;;;;;;;4.53;2.30;;;;;20.60;102049.00;;;;5080191;28;20242;-77
2021/07/09 04:33:43;;;;;;;3.70;2.28;;;;;20.60;102047.00;;;;5086204;28;20222;-77
2021/07/09 04:36:10;;;;;;;3.53;2.75;;;;;20.70;102048.00;;;;5088415;28;20198;-77
2021/07/09 04:38:38;;;;;;;3.30;2.50;;;;;20.70;102045.00;;;;5086527;28;20195;-77
2021/07/09 04:41:05;;;;;;;3.72;2.58;;;;;20.70;102050.00;;;;5088405;28;20610;-77
2021/07/09 04:43:32;;;;;;;5.63;2.92;;;;;20.70;102054.00;;;;5079597;28;20202;-77
2021/07/09 04:45:59;;;;;;;3.67;2.88;;;;;20.80;102044.00;;;;5086201;28;20190;-78
2021/07/09 04:48:26;;;;;;;4.50;2.92;;;;;20.80;102048.00;;;;5085310;28;20247;-78
2021/07/09 04:50:56;;;;;;;3.47;2.55;;;;;20.80;102053.00;;;;5077371;28;20222;-77
2021/07/09 04:53:23;;;;;;;3.58;2.92;;;;;20.90;102045.00;;;;5084446;28;20206;-77
2021/07/09 04:55:50;;;;;;;3.63;3.15;;;;;20.90;102047.00;;;;5078003;28;20199;-78
2021/07/09 04:58:17;;;;;;;3.42;2.63;;;;;21.00;102055.00;;;;5087955;28;20285;-78
2021/07/09 05:00:44;;;;;;;3.40;2.95;;;;;21.00;102050.00;;;;5085181;28;20194;-78
2021/07/09 05:03:12;;;;;;;4.13;2.30;;;;;21.10;102054.00;;;;5081886;28;20660;-78
2021/07/09 05:05:40;;;;;;;3.50;3.00;;;;;21.10;102052.00;;;;5085037;28;20198;-78
2021/07/09 05:08:08;;;;;;;4.80;2.55;;;;;21.20;102061.00;;;;5083125;28;20305;-78
2021/07/09 05:10:36;;;;;;;2.95;2.65;;;;;21.20;102059.00;;;;5080666;28;20199;-78
2021/07/09 05:13:05;;;;;;;4.15;3.17;;;;;21.30;102061.00;;;;5082914;28;20205;-78
2021/07/09 05:15:32;;;;;;;6.85;4.35;;;;;21.40;102053.00;;;;5084045;28;20309;-76
2021/07/09 05:17:59;;;;;;;4.95;3.72;;;;;21.40;102052.00;;;;5086547;28;20202;-79
2021/07/09 05:20:27;;;;;;;5.57;4.40;;;;;21.50;102059.00;;;;5087333;28;20186;-76
2021/07/09 05:22:54;;;;;;;6.45;4.80;;;;;21.50;102047.00;;;;5078090;28;20202;-76
2021/07/09 05:25:22;;;;;;;6.35;4.70;;;;;21.60;102046.00;;;;5085321;28;20211;-76
2021/07/09 05:27:50;;;;;;;6.03;5.07;;;;;21.70;102048.00;;;;5086860;28;20470;-74
2021/07/09 05:30:17;;;;;;;5.80;4.13;;;;;21.80;102046.00;;;;5071002;28;20579;-76
2021/07/09 05:32:46;;;;;;;6.55;4.53;;;;;21.80;102044.00;;;;5077680;28;20230;-76
2021/07/09 05:35:14;;;;;;;5.22;3.75;;;;;21.90;102043.00;;;;5072506;28;20689;-75
2021/07/09 05:37:41;;;;;;;5.72;4.35;;;;;22.00;102046.00;;;;5073771;28;20217;-75
2021/07/09 05:40:10;;;;;;;4.38;3.53;;;;;22.00;102048.00;;;;5090223;28;20316;-76
2021/07/09 05:42:38;;;;;;;4.45;3.88;;;;;22.10;102049.00;;;;5073982;28;20207;-76
2021/07/09 05:45:07;;;;;;;6.00;4.68;;;;;22.20;102054.00;;;;5083411;28;20190;-76
2021/07/09 05:47:34;;;;;;;5.22;4.72;;;;;22.30;102052.00;;;;5089497;28;20207;-76
2021/07/09 05:50:01;;;;;;;8.63;5.13;;;;;22.30;102047.00;;;;5075798;28;20259;-76
2021/07/09 05:52:28;;;;;;;7.93;5.80;;;;;22.40;102048.00;;;;5078576;28;20218;-77
2021/07/09 05:54:56;;;;;;;7.40;4.78;;;;;22.50;102048.00;;;;5074265;28;20202;-77
2021/07/09 05:57:23;;;;;;;7.55;5.72;;;;;22.50;102048.00;;;;5078008;28;20206;-80
2021/07/09 05:59:51;;;;;;;6.03;5.07;;;;;22.60;102054.00;;;;5072341;28;20210;-76
2021/07/09 06:02:19;;;;;;;7.65;4.70;;;;;22.70;102050.00;;;;5077960;28;20191;-75
2021/07/09 06:04:46;;;;;;;6.97;4.75;;;;;22.70;102047.00;;;;5070681;28;20637;-75
2021/07/09 06:07:13;;;;;;;6.75;4.43;;;;;22.80;102043.00;;;;5073495;28;20229;-75
2021/07/09 06:09:40;;;;;;;11.25;5.35;;;;;22.80;102047.00;;;;5076661;28;20686;-77
2021/07/09 06:12:08;;;;;;;6.85;4.80;;;;;22.80;102051.00;;;;5070896;28;20268;-78
2021/07/09 06:14:35;;;;;;;7.20;4.88;;;;;22.90;102048.00;;;;5070425;28;20202;-78
2021/07/09 06:17:04;;;;;;;7.57;4.55;;;;;23.00;102054.00;;;;5075466;28;20194;-77
2021/07/09 06:19:31;;;;;;;7.10;5.00;;;;;23.10;102051.00;;;;5091377;28;20202;-78
2021/07/09 06:21:59;;;;;;;8.35;4.97;;;;;23.10;102048.00;;;;5091118;28;20209;-79
2021/07/09 06:24:26;;;;;;;6.45;4.75;;;;;23.20;102051.00;;;;5091352;28;20202;-78
2021/07/09 06:26:54;;;;;;;7.75;5.38;;;;;23.30;102043.00;;;;5090999;28;20252;-79
2021/07/09 06:29:21;;;;;;;8.65;5.03;;;;;23.40;102058.00;;;;5090787;28;20206;-78
2021/07/09 06:31:48;;;;;;;7.32;4.85;;;;;23.50;102046.00;;;;5088099;28;20234;-79
2021/07/09 06:34:17;;;;;;;7.47;5.85;;;;;23.50;102047.00;;;;5070710;28;20276;-78
2021/07/09 06:36:44;;;;;;;5.95;4.80;;;;;23.60;102058.00;;;;5070548;28;20228;-79
2021/07/09 06:39:11;;;;;;;9.00;5.13;;;;;23.60;102048.00;;;;5077240;28;20561;-79
2021/07/09 06:41:38;;;;;;;5.55;4.30;;;;;23.70;102063.00;;;;5090876;28;20248;-79
2021/07/09 06:44:06;;;;;;;7.35;5.00;;;;;23.80;102062.00;;;;5091257;28;20675;-79
2021/07/09 06:46:33;;;;;;;6.97;4.78;;;;;23.90;102065.00;;;;5090826;28;20190;-79
2021/07/09 06:49:00;;;;;;;7.07;5.05;;;;;24.00;102070.00;;;;5085411;28;20641;-79
2021/07/09 06:51:29;;;;;;;9.45;5.95;;;;;24.00;102073.00;;;;5069975;28;20230;-79
2021/07/09 06:53:56;;;;;;;7.70;4.95;;;;;24.10;102070.00;;;;5071030;28;20195;-79
2021/07/09 06:56:23;;;;;;;6.20;4.95;;;;;24.20;102077.00;;;;5071099;28;20187;-79
2021/07/09 06:58:51;;;;;;;7.13;4.85;;;;;24.30;102074.00;;;;5070035;28;20202;-80
2021/07/09 07:01:18;;;;;;;8.35;5.22;;;;;24.30;102069.00;;;;5085448;28;20202;-77
2021/07/09 07:03:45;;;;;;;8.43;5.10;;;;;24.40;102071.00;;;;5082171;28;20269;-78
2021/07/09 07:06:13;;;;;;;5.63;4.03;;;;;24.50;102079.00;;;;5072742;28;20565;-78
2021/07/09 07:08:41;;;;;;;10.55;3.97;;;;;24.60;102074.00;;;;5072443;28;20198;-77
2021/07/09 07:11:09;;;;;;;4.72;3.92;;;;;24.60;102079.00;;;;5075850;28;20675;-76
2021/07/09 07:13:36;;;;;;;5.63;4.20;;;;;24.70;102085.00;;;;5074620;28;20225;-77
2021/07/09 07:16:05;;;;;;;4.88;3.42;;;;;24.80;102076.00;;;;5073785;28;20210;-77
2021/07/09 07:18:32;;;;;;;4.72;3.53;;;;;24.90;102084.00;;;;5087252;28;20197;-81
2021/07/09 07:21:00;;;;;;;5.68;3.47;;;;;25.00;102082.00;;;;5076197;28;20202;-77
2021/07/09 07:23:27;;;;;;;3.17;2.67;;;;;25.00;102081.00;;;;5074622;28;20198;-77
2021/07/09 07:25:56;;;;;;;3.45;2.60;;;;;25.10;102081.00;;;;5076779;28;20191;-77
2021/07/09 07:28:23;;;;;;;4.78;3.25;;;;;25.20;102088.00;;;;5082527;28;20227;-77
2021/07/09 07:30:50;;;;;;;4.53;3.03;;;;;25.30;102085.00;;;;5081267;28;20198;-78
2021/07/09 07:33:17;;;;;;;6.43;3.42;;;;;25.40;102082.00;;;;5072707;28;20233;-77
2021/07/09 07:35:44;;;;;;;6.32;4.20;;;;;25.50;102079.00;;;;5074246;28;20198;-77
2021/07/09 07:38:12;;;;;;;8.32;3.88;;;;;25.60;102076.00;;;;5075799;28;20229;-78
2021/07/09 07:40:39;;;;;;;7.65;4.60;;;;;25.70;102070.00;;;;5087146;28;20202;-79
2021/07/09 07:43:08;;;;;;;5.75;3.83;;;;;25.80;102074.00;;;;5087001;28;20259;-79
2021/07/09 07:45:35;;;;;;;4.30;3.75;;;;;25.90;102076.00;;;;5087726;28;20213;-79
2021/07/09 07:48:03;;;;;;;5.30;3.75;;;;;26.00;102075.00;;;;5083703;28;20259;-79
2021/07/09 07:50:30;;;;;;;5.72;4.13;;;;;26.00;102073.00;;;;5079025;28;20665;-79
2021/07/09 07:52:57;;;;;;;6.88;4.75;;;;;26.10;102061.00;;;;5079874;28;20223;-79
2021/07/09 07:55:25;;;;;;;4.80;3.92;;;;;26.20;102070.00;;;;5069897;28;20206;-78
2021/07/09 07:57:52;;;;;;;5.40;3.83;;;;;26.20;102071.00;;;;5072014;28;20217;-78
2021/07/09 08:00:21;;;;;;;7.43;4.32;;;;;26.30;102076.00;;;;5083812;28;20664;-78
2021/07/09 08:02:48;;;;;;;4.45;4.03;;;;;26.40;102077.00;;;;5070831;28;20191;-78
2021/07/09 08:05:16;;;;;;;4.85;3.55;;;;;26.50;102073.00;;;;5080374;28;20202;-79
2021/07/09 08:07:43;;;;;;;5.68;3.40;;;;;26.60;102079.00;;;;5068190;28;20272;-79
2021/07/09 08:10:11;;;;;;;5.25;3.30;;;;;26.70;102077.00;;;;5082144;28;20206;-79
2021/07/09 08:12:40;;;;;;;5.63;4.18;;;;;26.80;102081.00;;;;5087979;28;20237;-80
2021/07/09 08:15:08;;;;;;;6.40;4.28;;;;;26.90;102076.00;;;;5084586;28;20206;-78
2021/07/09 08:17:37;;;;;;;7.35;4.65;;;;;26.90;102075.00;;;;5069693;28;20244;-79
2021/07/09 08:20:05;;;;;;;5.18;3.97;;;;;27.00;102074.00;;;;5071651;28;20202;-78
2021/07/09 08:22:33;;;;;;;4.90;3.30;;;;;27.10;102065.00;;;;5071327;28;20249;-78
2021/07/09 08:25:01;;;;;;;9.18;4.75;;;;;27.20;102070.00;;;;5074083;28;20203;-78
2021/07/09 08:27:28;;;;;;;5.55;4.65;;;;;27.20;102073.00;;;;5072231;28;20199;-80
2021/07/09 08:29:55;;;;;;;6.47;5.03;;;;;27.30;102075.00;;;;5079475;28;20191;-79
2021/07/09 08:32:22;;;;;;;6.57;5.03;;;;;27.30;102079.00;;;;5076108;28;20227;-78
2021/07/09 08:34:54;;;;;;;7.22;4.75;;;;;27.40;102073.00;;;;5075502;28;20218;-78
2021/07/09 08:37:21;;;;;;;6.72;4.95;;;;;27.50;102072.00;;;;5075452;28;20680;-79
2021/07/09 08:39:48;;;;;;;7.05;4.45;;;;;27.50;102067.00;;;;5074054;28;20199;-79
2021/07/09 08:42:15;;;;;;;6.25;4.30;;;;;27.50;102078.00;;;;5088464;28;20202;-79
2021/07/09 08:44:43;;;;;;;6.38;4.40;;;;;27.60;102073.00;;;;5081714;28;20202;-78
2021/07/09 08:47:11;;;;;;;5.97;4.90;;;;;27.60;102079.00;;;;5074305;28;20730;-79
2021/07/09 08:49:40;;;;;;;5.90;4.57;;;;;27.70;102081.00;;;;5083181;28;20203;-78
2021/07/09 08:52:09;;;;;;;6.82;5.07;;;;;27.70;102080.00;;;;5078823;28;20333;-79
2021/07/09 08:54:36;;;;;;;6.90;5.35;;;;;27.80;102075.00;;;;5068136;28;20211;-80
2021/07/09 08:57:04;;;;;;;5.85;4.90;;;;;27.90;102073.00;;;;5076334;28;20198;-79
2021/07/09 08:59:32;;;;;;;6.30;5.00;;;;;28.00;102077.00;;;;5071053;28;20199;-80
2021/07/09 09:02:03;;;;;;;8.60;4.25;;;;;28.10;102075.00;;;;5085483;28;20679;-78
2021/07/09 09:04:32;;;;;;;6.18;4.78;;;;;28.20;102072.00;;;;5070465;28;20195;-78
2021/07/09 09:07:01;;;;;;;7.03;4.43;;;;;28.30;102070.00;;;;5084286;28;20707;-79
2021/07/09 09:09:31;;;;;;;6.45;4.80;;;;;28.50;102076.00;;;;5087401;28;20218;-79
2021/07/09 09:12:04;;;;;;;6.50;5.50;;;;;28.60;102068.00;;;;5071922;28;20198;-79
2021/07/09 09:14:34;;;;;;;11.40;6.82;;;;;28.60;102070.00;;;;5070853;28;20205;-78
2021/07/09 09:17:02;;;;;;;6.50;5.40;;;;;28.60;102072.00;;;;5073192;28;20199;-79
2021/07/09 09:19:30;;;;;;;6.55;5.70;;;;;28.50;102067.00;;;;5075934;28;20206;-79
2021/07/09 09:22:12;;;;;;;7.80;6.00;;;;;28.40;102073.00;;;;5074865;28;20247;-80
2021/07/09 09:24:41;;;;;;;10.05;7.30;;;;;28.50;102061.00;;;;5090220;28;20194;-80
2021/07/09 09:27:21;;;;;;;7.68;6.13;;;;;28.50;102059.00;;;;5091037;28;20198;-80
2021/07/09 09:29:49;;;;;;;5.47;4.95;;;;;28.60;102074.00;;;;5089270;28;20198;-80
2021/07/09 09:32:16;;;;;;;7.90;6.00;;;;;28.60;102066.00;;;;5090113;28;20202;-80
2021/07/09 09:34:45;;;;;;;9.93;5.60;;;;;28.60;102068.00;;;;5090064;28;20233;-79
2021/07/09 09:37:14;;;;;;;8.32;6.30;;;;;28.70;102064.00;;;;5091497;28;20202;-79
2021/07/09 09:39:45;;;;;;;10.02;5.88;;;;;28.70;102063.00;;;;5088396;28;20689;-79
2021/07/09 09:42:19;;;;;;;6.70;5.22;;;;;28.80;102062.00;;;;5082599;28;20222;-79
2021/07/09 09:44:47;;;;;;;9.07;6.68;;;;;28.80;102047.00;;;;5077901;28;20203;-79
2021/07/09 09:47:17;;;;;;;9.38;5.47;;;;;28.90;102060.00;;;;5073338;28;20583;-77
2021/07/09 09:49:45;;;;;;;7.38;5.53;;;;;29.00;102060.00;;;;5071755;28;20202;-77
2021/07/09 09:52:14;;;;;;;7.30;6.30;;;;;29.10;102053.00;;;;5078782;28;20202;-79
2021/07/09 09:54:42;;;;;;;8.18;6.18;;;;;29.20;102059.00;;;;5088907;28;20224;-78
2021/07/09 09:57:16;;;;;;;5.72;5.13;;;;;29.10;102054.00;;;;5072716;28;20199;-79
2021/07/09 09:59:45;;;;;;;7.28;5.32;;;;;29.20;102050.00;;;;5075474;28;20203;-77
2021/07/09 10:02:14;;;;;;;6.93;5.78;;;;;29.20;102055.00;;;;5079003;28;20268;-78
2021/07/09 10:04:42;;;;;;;8.95;5.97;;;;;29.20;102054.00;;;;5090099;28;20626;-77
2021/07/09 10:07:10;;;;;;;8.18;5.55;;;;;29.10;102049.00;;;;5086901;28;20218;-77
2021/07/09 10:09:40;;;;;;;10.35;6.13;;;;;29.10;102047.00;;;;5091646;28;20198;-77
2021/07/09 10:12:10;;;;;;;7.72;5.05;;;;;29.20;102051.00;;;;5072791;28;20202;-78
2021/07/09 10:14:39;;;;;;;8.35;6.50;;;;;29.20;102045.00;;;;5085732;28;20226;-77
2021/07/09 10:17:08;;;;;;;6.15;5.00;;;;;29.10;102049.00;;;;5089719;28;20271;-77
2021/07/09 10:19:38;;;;;;;9.85;5.35;;;;;29.10;102045.00;;;;5087361;28;20562;-77
2021/07/09 10:22:06;;;;;;;6.22;5.25;;;;;29.20;102045.00;;;;5085560;28;20660;-78
2021/07/09 10:24:34;;;;;;;6.75;5.45;;;;;29.30;102042.00;;;;5070488;28;20198;-79
2021/07/09 10:27:03;;;;;;;8.88;5.45;;;;;29.40;102043.00;;;;5070794;28;20240;-79
2021/07/09 10:29:35;;;;;;;6.95;5.47;;;;;29.30;102040.00;;;;5071461;28;20661;-78
2021/07/09 10:32:04;;;;;;;6.05;4.72;;;;;29.40;102046.00;;;;5070928;28;20562;-79
2021/07/09 10:34:35;;;;;;;8.32;6.07;;;;;29.40;102047.00;;;;5069156;28;20262;-78
2021/07/09 10:37:04;;;;;;;7.10;5.65;;;;;29.40;102050.00;;;;5070114;28;20206;-78
2021/07/09 10:39:36;;;;;;;6.10;5.13;;;;;29.30;102041.00;;;;5070407;28;20601;-78
2021/07/09 10:42:15;;;;;;;6.60;4.35;;;;;29.20;102041.00;;;;5074085;28;20195;-78
2021/07/09 10:45:04;;;;;;;5.82;4.78;;;;;29.20;102054.00;;;;5082138;28;20206;-80
2021/07/09 10:47:46;;;;;;;6.55;4.70;;;;;29.20;102046.00;;;;5090423;28;20205;-79
2021/07/09 10:50:15;;;;;;;5.13;4.55;;;;;29.20;102046.00;;;;5090931;28;20190;-80
2021/07/09 10:52:54;;;;;;;6.45;4.45;;;;;29.10;102045.00;;;;5091128;28;20202;-79
2021/07/09 10:55:57;;;;;;;5.43;4.28;;;;;29.10;102036.00;;;;5091011;28;20205;-79
2021/07/09 10:58:39;;;;;;;4.90;4.18;;;;;29.20;102036.00;;;;5091029;28;20197;-80
2021/07/09 11:01:23;;;;;;;5.30;3.80;;;;;29.20;102035.00;;;;5089345;28;20269;-80
2021/07/09 11:04:08;;;;;;;5.45;3.70;;;;;29.30;102036.00;;;;5088331;28;20213;-79
2021/07/09 11:06:39;;;;;;;4.80;3.80;;;;;29.30;102035.00;;;;5088891;28;20238;-80
2021/07/09 11:09:07;;;;;;;4.65;4.15;;;;;29.40;102032.00;;;;5090234;28;20191;-81
2021/07/09 11:11:42;;;;;;;5.95;5.00;;;;;29.40;102036.00;;;;5090645;28;20676;-80
2021/07/09 11:14:11;;;;;;;10.00;4.40;;;;;29.40;102032.00;;;;5090319;28;20217;-80
2021/07/09 11:16:41;;;;;;;4.68;3.97;;;;;29.40;102031.00;;;;5089974;28;20195;-80
2021/07/09 11:19:11;;;;;;;5.30;3.65;;;;;29.50;102030.00;;;;5071513;28;20253;-80
2021/07/09 11:21:53;;;;;;;5.88;3.78;;;;;29.40;102029.00;;;;5079600;28;20619;-79
2021/07/09 11:24:23;;;;;;;4.65;3.97;;;;;29.50;102030.00;;;;5090476;28;20655;-79
2021/07/09 11:26:52;;;;;;;7.45;3.92;;;;;29.50;102024.00;;;;5090202;28;20622;-80
2021/07/09 11:29:34;;;;;;;4.40;3.15;;;;;29.50;102029.00;;;;5089720;28;20213;-80
2021/07/09 11:32:09;;;;;;;3.70;3.40;;;;;29.60;102026.00;;;;5090086;28;20202;-80
2021/07/09 11:34:39;;;;;;;6.55;3.83;;;;;29.70;102022.00;;;;5089626;28;20229;-80
2021/07/09 11:37:10;;;;;;;6.57;3.70;;;;;29.70;102026.00;;;;5087894;28;20247;-80
2021/07/09 11:39:39;;;;;;;5.65;4.07;;;;;29.80;102021.00;;;;5082034;28;20194;-80
2021/07/09 11:42:09;;;;;;;4.70;3.88;;;;;29.80;102017.00;;;;5068946;28;20222;-80
2021/07/09 11:44:40;;;;;;;5.40;3.17;;;;;29.80;102028.00;;;;5071499;28;20210;-79
2021/07/09 11:47:11;;;;;;;6.78;3.47;;;;;29.80;102014.00;;;;5082111;28;20293;-79
2021/07/09 11:49:40;;;;;;;5.60;3.75;;;;;29.90;102023.00;;;;5074785;28;20203;-77
2021/07/09 11:52:09;;;;;;;5.00;2.95;;;;;29.90;102022.00;;;;5069598;28;20202;-77
2021/07/09 11:54:39;;;;;;;4.45;3.35;;;;;29.90;102021.00;;;;5069692;28;20230;-78
2021/07/09 11:57:13;;;;;;;3.63;3.10;;;;;29.90;102012.00;;;;5069285;28;20227;-77
2021/07/09 11:59:43;;;;;;;4.30;3.53;;;;;30.00;102025.00;;;;5068918;28;20651;-77
2021/07/09 12:02:14;;;;;;;4.93;3.58;;;;;30.10;102018.00;;;;5068299;28;20199;-78
2021/07/09 12:04:45;;;;;;;4.50;4.07;;;;;30.10;102011.00;;;;5068284;28;20614;-81
2021/07/09 12:07:15;;;;;;;5.80;3.55;;;;;30.20;102021.00;;;;5068256;28;20693;-78
2021/07/09 12:09:43;;;;;;;5.57;3.88;;;;;30.20;102019.00;;;;5068306;28;20199;-81
2021/07/09 12:12:10;;;;;;;4.35;3.47;;;;;30.20;102015.00;;;;5068578;28;20207;-79
2021/07/09 12:14:53;;;;;;;5.10;3.83;;;;;30.10;102019.00;;;;5067974;28;20218;-77
2021/07/09 12:17:23;;;;;;;5.10;4.07;;;;;30.20;102019.00;;;;5070405;28;20684;-77